Time;durP1;ratioP1;P1;durP2;ratioP2;P2;SDS_P1;SDS_P2;PMS_P1;PMS_P2;Temp;Humidity;BMP_temperature;BMP_pressure;BME280_temperature;BME280_humidity;BME280_pressure;Samples;Min_cycle;Max_cycle;Signal;HPM_P1;HPM_P2
2023/11/13 00:00:46;;;;;;;2.92;1.77;;;;;;;7.37;94.92;100375.25;4730197;30;20204;-65
2023/11/13 00:03:17;;;;;;;3.08;1.50;;;;;;;7.47;94.69;100380.28;4731206;30;20889;-65
2023/11/13 00:05:48;;;;;;;1.63;1.10;;;;;;;7.40;94.69;100386.47;4733584;30;20304;-66
2023/11/13 00:08:18;;;;;;;1.77;1.15;;;;;;;7.39;94.76;100390.19;4732663;30;20213;-66
2023/11/13 00:10:49;;;;;;;2.10;1.42;;;;;;;7.42;93.87;100392.47;4748017;30;20208;-66
2023/11/13 00:13:20;;;;;;;3.15;1.40;;;;;;;7.38;94.38;100387.69;4734993;30;20316;-66
2023/11/13 00:15:51;;;;;;;2.65;1.83;;;;;;;7.32;94.67;100400.03;4749118;30;20626;-64
2023/11/13 00:18:25;;;;;;;1.85;0.98;;;;;;;7.37;93.90;100403.00;4733652;30;20220;-65
2023/11/13 00:20:56;;;;;;;2.05;1.85;;;;;;;7.43;93.84;100401.38;4745418;30;20204;-66
2023/11/13 00:23:27;;;;;;;2.30;1.55;;;;;;;7.37;93.51;100397.59;4735821;30;20756;-66
2023/11/13 00:25:58;;;;;;;2.22;1.40;;;;;;;7.50;93.05;100401.47;4745905;30;20220;-66
2023/11/13 00:28:29;;;;;;;5.47;1.55;;;;;;;7.38;93.03;100404.66;4746266;30;20202;-66
2023/11/13 00:31:02;;;;;;;1.27;1.17;;;;;;;7.37;93.21;100407.53;4746951;30;20216;-67
2023/11/13 00:33:32;;;;;;;2.05;1.17;;;;;;;7.23;94.07;100406.59;4733438;30;20226;-66
2023/11/13 00:36:02;;;;;;;3.97;1.52;;;;;;;7.27;94.67;100407.88;4748748;30;20205;-67
2023/11/13 00:38:32;;;;;;;1.45;1.27;;;;;;;7.41;93.92;100409.66;4748922;30;20278;-66
2023/11/13 00:41:03;;;;;;;1.58;1.30;;;;;;;7.45;93.11;100414.66;4749005;30;20276;-66
2023/11/13 00:43:34;;;;;;;1.85;1.52;;;;;;;7.57;92.20;100418.50;4735169;30;20224;-65
2023/11/13 00:46:06;;;;;;;4.90;1.08;;;;;;;7.46;91.94;100419.84;4734025;30;20212;-66
2023/11/13 00:48:37;;;;;;;7.03;2.08;;;;;;;7.50;92.34;100423.00;4732795;30;20723;-64
2023/11/13 00:51:08;;;;;;;1.73;1.10;;;;;;;7.38;92.31;100417.28;4748826;30;20684;-66
2023/11/13 00:53:38;;;;;;;1.25;1.02;;;;;;;7.47;92.26;100417.97;4734201;30;20319;-65
2023/11/13 00:56:09;;;;;;;3.35;2.10;;;;;;;7.41;93.02;100406.97;4745942;30;20207;-65
2023/11/13 00:58:40;;;;;;;1.83;1.73;;;;;;;7.43;92.45;100407.63;4746483;30;20216;-65
2023/11/13 01:01:14;;;;;;;1.60;1.35;;;;;;;7.46;92.20;100406.38;4734200;30;20222;-65
2023/11/13 01:03:44;;;;;;;1.90;1.60;;;;;;;7.40;91.95;100402.63;4733582;30;20665;-65
2023/11/13 01:06:16;;;;;;;3.78;2.15;;;;;;;7.54;91.21;100402.72;4733076;30;20602;-64
2023/11/13 01:08:47;;;;;;;2.53;1.90;;;;;;;7.40;92.09;100402.63;4734582;30;20622;-66
2023/11/13 01:11:17;;;;;;;2.05;1.33;;;;;;;7.30;91.79;100394.03;4748003;30;20211;-63
2023/11/13 01:13:48;;;;;;;5.43;2.17;;;;;;;7.32;92.02;100399.22;4732901;30;20270;-63
2023/11/13 01:16:21;;;;;;;2.78;1.70;;;;;;;7.30;92.06;100385.97;4747504;30;20208;-65
2023/11/13 01:18:53;;;;;;;1.75;1.20;;;;;;;7.40;91.80;100381.09;4732605;30;20732;-64
2023/11/13 01:21:24;;;;;;;2.50;1.48;;;;;;;7.49;89.77;100379.09;4748436;30;20208;-66
2023/11/13 01:23:55;;;;;;;2.47;1.30;;;;;;;7.56;90.13;100376.44;4733029;30;20234;-64
2023/11/13 01:26:26;;;;;;;1.45;1.20;;;;;;;7.49;90.57;100372.88;4732860;30;20208;-65
2023/11/13 01:28:55;;;;;;;3.63;2.08;;;;;;;7.56;89.43;100377.25;4747901;30;20211;-65
2023/11/13 01:31:27;;;;;;;2.60;2.03;;;;;;;7.40;89.45;100386.47;4734867;30;20253;-65
2023/11/13 01:33:57;;;;;;;3.25;2.22;;;;;;;7.44;89.92;100381.53;4732710;30;20607;-65
2023/11/13 01:36:30;;;;;;;4.07;2.30;;;;;;;7.45;90.48;100387.75;4733027;30;20668;-64
2023/11/13 01:39:00;;;;;;;1.30;0.95;;;;;;;7.45;89.63;100387.75;4747052;30;20231;-65
2023/11/13 01:41:36;;;;;;;1.92;1.45;;;;;;;7.35;90.05;100388.06;4733367;30;20215;-64
2023/11/13 01:44:08;;;;;;;2.58;1.63;;;;;;;7.45;89.62;100388.59;4732249;30;20239;-65
2023/11/13 01:46:41;;;;;;;1.83;1.30;;;;;;;7.39;90.01;100394.75;4747451;30;20220;-64
2023/11/13 01:49:11;;;;;;;1.30;1.08;;;;;;;7.36;89.48;100382.47;4733467;30;20230;-64
2023/11/13 01:51:42;;;;;;;1.90;1.25;;;;;;;7.38;90.04;100371.53;4731536;30;20270;-66
2023/11/13 01:54:13;;;;;;;2.35;1.20;;;;;;;7.39;89.97;100374.03;4745996;30;20231;-66
2023/11/13 01:56:45;;;;;;;2.63;1.60;;;;;;;7.50;89.91;100374.53;4732921;30;20205;-66
2023/11/13 01:59:15;;;;;;;5.78;2.00;;;;;;;7.56;88.27;100384.50;4732616;30;20224;-65
2023/11/13 02:01:47;;;;;;;2.63;2.03;;;;;;;7.58;88.92;100371.69;4732654;30;20204;-65
2023/11/13 02:04:18;;;;;;;2.55;1.20;;;;;;;7.50;87.24;100371.84;4731435;30;20232;-65
2023/11/13 02:06:48;;;;;;;1.55;1.40;;;;;;;7.32;89.04;100366.91;4731314;30;20224;-66
2023/11/13 02:09:20;;;;;;;2.75;1.35;;;;;;;7.43;89.10;100375.31;4730849;30;20292;-66
2023/11/13 02:11:51;;;;;;;2.17;1.13;;;;;;;7.39;88.70;100370.50;4731570;30;20225;-65
2023/11/13 02:14:24;;;;;;;2.05;1.42;;;;;;;7.35;89.26;100377.31;4732249;30;20771;-65
2023/11/13 02:17:06;;;;;;;2.75;2.13;;;;;;;7.28;90.25;100371.84;4731646;30;20219;-64
2023/11/13 02:19:36;;;;;;;1.42;1.20;;;;;;;7.31;89.75;100368.75;4731684;30;20340;-65
2023/11/13 02:22:08;;;;;;;3.72;1.88;;;;;;;7.36;89.06;100371.72;4745874;30;20208;-65
2023/11/13 02:24:40;;;;;;;2.50;1.40;;;;;;;7.32;88.71;100375.00;4745395;30;20239;-65
2023/11/13 02:27:11;;;;;;;3.97;2.78;;;;;;;7.25;88.60;100369.56;4729349;30;20216;-65
2023/11/13 02:29:41;;;;;;;1.20;1.10;;;;;;;7.12;89.53;100360.50;4732765;30;20236;-64
2023/11/13 02:32:11;;;;;;;3.10;1.58;;;;;;;7.05;90.04;100376.59;4747617;30;20208;-65
2023/11/13 02:34:43;;;;;;;5.57;1.20;;;;;;;7.12;89.89;100387.41;4682462;30;1577924;-64
2023/11/13 02:37:13;;;;;;;1.08;0.93;;;;;;;7.09;89.87;100387.81;4733663;30;20299;-65
2023/11/13 02:39:45;;;;;;;4.80;2.22;;;;;;;7.06;90.51;100380.13;4731873;30;20478;-65
2023/11/13 02:42:16;;;;;;;1.40;1.10;;;;;;;6.97;91.12;100390.19;4731805;30;20204;-64
2023/11/13 02:44:47;;;;;;;1.65;1.02;;;;;;;7.07;90.66;100396.06;4746448;30;20635;-64
2023/11/13 02:47:19;;;;;;;1.20;0.82;;;;;;;7.02;90.80;100393.13;4729248;30;20231;-66
2023/11/13 02:49:50;;;;;;;2.75;1.40;;;;;;;7.17;89.75;100385.81;4746031;30;20272;-66
2023/11/13 02:52:20;;;;;;;1.73;1.08;;;;;;;7.07;90.37;100389.88;4731871;30;20204;-66
2023/11/13 02:54:52;;;;;;;1.58;1.25;;;;;;;7.02;90.48;100384.25;4731336;30;20660;-66
2023/11/13 02:57:22;;;;;;;2.55;1.70;;;;;;;6.94;91.05;100387.88;4745691;30;20196;-67
2023/11/13 02:59:53;;;;;;;1.35;1.23;;;;;;;6.99;91.07;100380.06;4730941;30;20299;-66
2023/11/13 03:02:22;;;;;;;1.65;1.00;;;;;;;6.98;91.66;100381.06;4732703;30;20589;-66
2023/11/13 03:04:53;;;;;;;1.75;1.52;;;;;;;7.06;90.78;100378.28;4731581;30;20228;-65
2023/11/13 03:07:23;;;;;;;1.48;1.35;;;;;;;7.17;90.17;100369.69;4730867;30;20609;-65
2023/11/13 03:09:55;;;;;;;2.45;1.58;;;;;;;7.17;90.46;100376.91;4732411;30;20679;-66
2023/11/13 03:12:26;;;;;;;3.17;2.05;;;;;;;7.18;89.90;100379.41;4745830;30;20212;-66
2023/11/13 03:14:56;;;;;;;2.85;1.65;;;;;;;7.29;89.75;100384.28;4731819;30;20216;-66
2023/11/13 03:17:27;;;;;;;1.90;1.38;;;;;;;7.38;88.71;100383.13;4746825;30;20200;-65
2023/11/13 03:19:57;;;;;;;2.00;1.58;;;;;;;7.27;89.54;100380.94;4744621;30;20216;-65
2023/11/13 03:22:28;;;;;;;2.00;1.17;;;;;;;7.19;89.60;100377.56;4730009;30;20208;-66
2023/11/13 03:25:00;;;;;;;1.60;1.20;;;;;;;7.24;89.15;100377.81;4731026;30;20235;-64
2023/11/13 03:27:30;;;;;;;2.55;1.88;;;;;;;7.11;90.71;100378.53;4731030;30;20274;-67
2023/11/13 03:30:00;;;;;;;3.05;1.65;;;;;;;7.24;89.88;100375.97;4731122;30;20204;-66
2023/11/13 03:32:31;;;;;;;1.63;1.00;;;;;;;7.03;91.13;100384.03;4744998;30;20258;-66
2023/11/13 03:35:02;;;;;;;3.05;2.67;;;;;;;7.13;91.15;100384.53;4742747;30;20635;-65
2023/11/13 03:37:33;;;;;;;1.55;1.25;;;;;;;6.92;91.80;100392.63;4744545;30;20204;-64
2023/11/13 03:40:08;;;;;;;3.50;1.60;;;;;;;6.94;92.17;100396.78;4731670;30;20598;-65
2023/11/13 03:42:38;;;;;;;6.53;3.55;;;;;;;6.81;93.53;100395.81;4732024;30;20210;-66
2023/11/13 03:45:10;;;;;;;2.38;1.75;;;;;;;6.91;93.05;100394.47;4725124;30;20574;-66
2023/11/13 03:47:40;;;;;;;2.20;1.33;;;;;;;6.77;93.07;100389.13;4746397;30;20220;-65
2023/11/13 03:50:11;;;;;;;3.15;1.40;;;;;;;6.90;93.63;100389.28;4735903;30;20275;-65
2023/11/13 03:52:41;;;;;;;2.90;1.50;;;;;;;6.81;93.57;100391.25;4734505;30;20212;-65
2023/11/13 03:55:12;;;;;;;2.10;1.33;;;;;;;6.72;94.13;100383.50;4733661;30;20632;-66
2023/11/13 03:57:43;;;;;;;2.05;1.17;;;;;;;6.68;94.65;100374.16;4734301;30;20200;-66
2023/11/13 04:00:15;;;;;;;1.10;1.00;;;;;;;6.84;94.85;100372.03;4749537;30;20210;-66
2023/11/13 04:02:47;;;;;;;1.73;1.63;;;;;;;6.87;94.16;100376.22;4748855;30;20722;-65
2023/11/13 04:05:18;;;;;;;2.35;1.30;;;;;;;6.82;94.76;100386.72;4735723;30;20282;-65
2023/11/13 04:07:48;;;;;;;2.80;1.25;;;;;;;6.92;93.86;100381.88;4749011;30;20227;-65
2023/11/13 04:10:20;;;;;;;3.10;2.50;;;;;;;6.87;94.36;100384.28;4734156;30;20220;-66
2023/11/13 04:12:50;;;;;;;4.55;1.20;;;;;;;6.81;94.53;100382.34;4733716;30;20712;-65
2023/11/13 04:15:22;;;;;;;1.90;1.50;;;;;;;6.92;94.61;100392.63;4748467;30;20228;-66
2023/11/13 04:17:52;;;;;;;3.72;1.55;;;;;;;7.03;93.60;100393.94;4735797;30;20200;-65
2023/11/13 04:20:23;;;;;;;1.55;1.45;;;;;;;6.92;94.02;100395.31;4748896;30;20201;-66
2023/11/13 04:22:55;;;;;;;1.60;1.30;;;;;;;6.84;94.56;100392.72;4715953;30;20229;-65
2023/11/13 04:25:28;;;;;;;3.85;1.92;;;;;;;6.79;94.67;100393.28;4733755;30;20208;-65
2023/11/13 04:27:59;;;;;;;1.63;0.98;;;;;;;6.83;94.68;100388.34;4743095;30;20271;-65
2023/11/13 04:30:29;;;;;;;1.70;1.35;;;;;;;6.74;95.17;100384.97;4749122;30;20208;-64
2023/11/13 04:33:00;;;;;;;2.97;2.35;;;;;;;6.68;95.08;100379.53;4746505;30;20216;-65
2023/11/13 04:35:30;;;;;;;2.22;1.52;;;;;;;6.48;96.16;100380.13;4749668;30;20254;-65
2023/11/13 04:38:01;;;;;;;2.75;2.25;;;;;;;6.51;96.15;100390.50;4750934;30;20200;-66
2023/11/13 04:40:32;;;;;;;5.50;2.35;;;;;;;6.40;96.97;100387.44;4748968;30;20266;-65
2023/11/13 04:43:03;;;;;;;1.23;1.10;;;;;;;6.40;97.11;100395.50;4735052;30;20621;-65
2023/11/13 04:45:36;;;;;;;1.30;1.00;;;;;;;6.24;97.56;100393.03;4733564;30;20307;-65
2023/11/13 04:48:06;;;;;;;4.70;2.08;;;;;;;6.16;98.56;100402.00;4744207;30;20701;-65
2023/11/13 04:50:37;;;;;;;2.97;1.92;;;;;;;6.21;99.06;100404.97;4735091;30;20219;-65
2023/11/13 04:53:07;;;;;;;1.77;1.30;;;;;;;6.23;98.96;100405.63;4748742;30;20656;-66
2023/11/13 04:55:39;;;;;;;1.85;1.35;;;;;;;6.25;99.02;100408.09;4728755;30;20205;-66
2023/11/13 04:58:09;;;;;;;2.35;1.52;;;;;;;6.21;98.58;100407.66;4748948;30;20294;-63
2023/11/13 05:00:39;;;;;;;1.30;0.90;;;;;;;6.18;99.37;100405.34;4734992;30;20635;-65
2023/11/13 05:03:10;;;;;;;1.85;1.40;;;;;;;6.24;98.99;100401.09;4748774;30;20632;-64
2023/11/13 05:05:42;;;;;;;3.90;1.20;;;;;;;6.08;99.09;100405.63;4734580;30;20868;-65
2023/11/13 05:08:14;;;;;;;2.05;1.55;;;;;;;6.03;99.62;100401.81;4748738;30;20566;-65
2023/11/13 05:10:46;;;;;;;1.00;0.80;;;;;;;6.24;99.11;100407.31;4748484;30;20223;-64
2023/11/13 05:13:16;;;;;;;1.38;1.20;;;;;;;6.24;98.51;100412.69;4733666;30;20235;-66
2023/11/13 05:15:46;;;;;;;3.78;1.83;;;;;;;6.40;97.60;100415.16;4733566;30;20295;-65
2023/11/13 05:18:16;;;;;;;1.98;1.30;;;;;;;6.43;97.11;100417.47;4733939;30;20205;-65
2023/11/13 05:20:47;;;;;;;1.58;1.33;;;;;;;6.26;97.91;100418.69;4733338;30;20212;-65
2023/11/13 05:23:17;;;;;;;2.15;1.00;;;;;;;6.28;98.53;100411.28;4733467;30;20228;-65
2023/11/13 05:25:49;;;;;;;1.77;1.45;;;;;;;6.44;97.24;100419.13;4734091;30;20215;-66
2023/11/13 05:28:19;;;;;;;3.20;1.40;;;;;;;6.47;97.18;100416.09;4747546;30;20299;-65
2023/11/13 05:30:50;;;;;;;3.17;2.85;;;;;;;6.50;96.29;100421.06;4734059;30;20275;-65
2023/11/13 05:33:21;;;;;;;1.52;1.10;;;;;;;6.46;97.43;100417.09;4730437;30;20266;-66
2023/11/13 05:35:51;;;;;;;3.47;1.85;;;;;;;6.53;96.18;100406.44;4732018;30;21174;-64
2023/11/13 05:38:22;;;;;;;1.40;1.30;;;;;;;6.57;96.49;100405.03;4747759;30;20216;-65
2023/11/13 05:40:54;;;;;;;1.65;1.55;;;;;;;6.45;96.73;100399.28;4732225;30;20238;-66
2023/11/13 05:43:25;;;;;;;1.65;1.10;;;;;;;6.47;96.89;100404.50;4747684;30;20231;-65
2023/11/13 05:45:55;;;;;;;3.85;1.55;;;;;;;6.65;95.55;100401.38;4747336;30;20274;-64
2023/11/13 05:48:27;;;;;;;16.40;3.38;;;;;;;6.50;95.22;100401.41;4733349;30;20204;-66
2023/11/13 05:50:59;;;;;;;4.75;1.50;;;;;;;6.38;96.23;100406.47;4747377;30;20200;-66
2023/11/13 05:53:29;;;;;;;2.28;2.08;;;;;;;6.43;96.59;100400.53;4747161;30;20300;-66
2023/11/13 05:56:01;;;;;;;2.88;1.40;;;;;;;6.40;96.30;100401.72;4730051;30;20200;-66
2023/11/13 05:58:33;;;;;;;1.83;1.27;;;;;;;6.29;96.58;100402.19;4746949;30;20211;-65
2023/11/13 06:01:03;;;;;;;2.08;1.58;;;;;;;6.31;96.75;100408.22;4729449;30;20201;-66
2023/11/13 06:03:33;;;;;;;1.67;1.58;;;;;;;6.12;97.06;100406.09;4726979;30;20233;-65
2023/11/13 06:06:06;;;;;;;2.35;1.25;;;;;;;6.14;97.44;100414.81;4730313;30;20210;-65
2023/11/13 06:08:37;;;;;;;2.90;1.70;;;;;;;5.99;98.15;100409.41;4731997;30;20526;-66
2023/11/13 06:11:10;;;;;;;2.90;1.80;;;;;;;5.95;98.25;100415.34;4732018;30;20277;-65
2023/11/13 06:13:41;;;;;;;3.15;2.22;;;;;;;5.91;98.82;100422.06;4746153;30;20297;-66
2023/11/13 06:16:11;;;;;;;4.78;2.65;;;;;;;5.77;99.53;100421.00;4747093;30;20236;-66
2023/11/13 06:18:50;;;;;;;1.42;1.23;;;;;;;5.83;99.22;100427.50;4731992;30;20228;-66
2023/11/13 06:21:21;;;;;;;2.20;1.45;;;;;;;5.86;99.43;100438.72;4732098;30;20261;-66
2023/11/13 06:23:52;;;;;;;12.80;1.55;;;;;;;5.92;99.43;100437.19;4730975;30;20587;-65
2023/11/13 06:26:25;;;;;;;3.28;1.90;;;;;;;5.96;99.05;100443.84;4747213;30;20717;-67
2023/11/13 06:28:56;;;;;;;1.88;1.77;;;;;;;5.69;99.70;100437.22;4732190;30;20227;-67
2023/11/13 06:31:26;;;;;;;4.82;2.30;;;;;;;5.65;100.00;100439.44;4746795;30;20299;-67
2023/11/13 06:33:57;;;;;;;6.22;1.92;;;;;;;5.60;100.00;100432.94;4732563;30;20270;-67
2023/11/13 06:36:28;;;;;;;3.80;2.08;;;;;;;5.57;100.00;100428.75;4731770;30;20294;-66
2023/11/13 06:38:59;;;;;;;2.63;2.15;;;;;;;5.81;100.00;100422.31;4747024;30;20196;-66
2023/11/13 06:41:31;;;;;;;6.68;2.20;;;;;;;5.75;100.00;100420.38;4732288;30;20586;-66
2023/11/13 06:44:04;;;;;;;3.90;2.15;;;;;;;5.91;99.88;100416.72;4732329;30;20355;-65
2023/11/13 06:46:35;;;;;;;1.55;1.30;;;;;;;5.76;100.00;100421.22;4732358;30;20258;-65
2023/11/13 06:49:06;;;;;;;5.75;4.47;;;;;;;5.84;100.00;100413.06;4732522;30;20249;-65
2023/11/13 06:51:37;;;;;;;1.80;1.70;;;;;;;5.74;100.00;100417.88;4736174;30;20204;-63
2023/11/13 06:54:08;;;;;;;4.35;1.67;;;;;;;5.75;100.00;100423.06;4734130;30;20224;-66
2023/11/13 06:56:40;;;;;;;1.95;1.63;;;;;;;5.74;100.00;100412.50;4733581;30;20234;-64
2023/11/13 06:59:11;;;;;;;7.22;3.85;;;;;;;5.76;100.00;100415.84;4732551;30;20451;-66
2023/11/13 07:01:43;;;;;;;5.53;2.08;;;;;;;5.67;100.00;100426.63;4729180;30;20211;-66
2023/11/13 07:04:14;;;;;;;2.17;1.98;;;;;;;5.56;100.00;100426.25;4729489;30;20231;-63
2023/11/13 07:06:45;;;;;;;2.42;2.22;;;;;;;5.49;100.00;100412.72;4733914;30;20204;-64
2023/11/13 07:09:16;;;;;;;9.93;2.25;;;;;;;5.43;100.00;100409.91;4746400;30;20224;-66
2023/11/13 07:11:49;;;;;;;5.00;1.90;;;;;;;5.35;100.00;100407.31;4733373;30;20200;-65
2023/11/13 07:14:19;;;;;;;7.28;2.80;;;;;;;5.41;100.00;100417.31;4732024;30;20220;-65
2023/11/13 07:16:50;;;;;;;4.03;2.22;;;;;;;5.54;100.00;100413.00;4733870;30;20226;-66
2023/11/13 07:19:21;;;;;;;2.67;2.45;;;;;;;5.79;100.00;100412.78;4745505;30;20623;-65
2023/11/13 07:21:52;;;;;;;2.08;1.83;;;;;;;5.62;100.00;100410.25;4746811;30;20234;-66
2023/11/13 07:24:23;;;;;;;2.75;2.25;;;;;;;5.60;100.00;100417.66;4750609;30;20236;-66
2023/11/13 07:26:55;;;;;;;1.77;1.65;;;;;;;5.58;100.00;100414.31;4736120;30;20687;-66
2023/11/13 07:29:32;;;;;;;5.35;2.22;;;;;;;5.52;100.00;100412.34;4736515;30;20326;-68
2023/11/13 07:32:03;;;;;;;3.85;2.15;;;;;;;5.58;100.00;100402.75;4740373;30;20203;-66
2023/11/13 07:34:33;;;;;;;2.78;2.53;;;;;;;5.85;100.00;100404.00;4737586;30;20234;-65
2023/11/13 07:37:04;;;;;;;3.70;1.73;;;;;;;5.83;100.00;100398.81;4750772;30;20250;-65
2023/11/13 07:39:35;;;;;;;2.92;1.73;;;;;;;6.26;99.37;100402.56;4735641;30;20311;-66
2023/11/13 07:42:07;;;;;;;2.47;1.60;;;;;;;6.54;98.03;100397.31;4734640;30;20488;-66
2023/11/13 07:44:45;;;;;;;4.22;1.90;;;;;;;6.75;96.30;100396.56;4736276;30;20727;-66
2023/11/13 07:47:17;;;;;;;5.07;3.70;;;;;;;7.09;93.51;100403.97;4747208;30;20204;-66
2023/11/13 07:49:47;;;;;;;4.63;2.42;;;;;;;7.47;90.83;100409.91;4735248;30;20715;-65
2023/11/13 07:52:17;;;;;;;2.40;1.52;;;;;;;7.58;87.97;100412.09;4748581;30;20586;-65
2023/11/13 07:54:48;;;;;;;3.75;1.80;;;;;;;7.61;87.60;100415.22;4734323;30;20266;-65
2023/11/13 07:57:20;;;;;;;2.55;2.13;;;;;;;7.95;84.93;100406.34;4748478;30;20548;-66
2023/11/13 07:59:53;;;;;;;2.05;1.77;;;;;;;8.14;83.62;100408.34;4748673;30;20711;-67
2023/11/13 08:02:24;;;;;;;2.15;1.60;;;;;;;8.37;81.84;100401.88;4735105;30;20204;-67
2023/11/13 08:04:57;;;;;;;4.07;2.20;;;;;;;8.49;81.06;100408.34;4748968;30;20249;-65
2023/11/13 08:07:27;;;;;;;2.20;1.85;;;;;;;8.43;80.08;100401.91;4735330;30;20572;-69
2023/11/13 08:10:01;;;;;;;3.08;2.25;;;;;;;8.22;80.51;100397.41;4734292;30;20220;-70
2023/11/13 08:12:33;;;;;;;2.25;1.55;;;;;;;8.00;81.74;100387.72;4734414;30;20235;-69
2023/11/13 08:15:05;;;;;;;4.63;1.58;;;;;;;7.92;82.99;100387.91;4736723;30;20306;-70
2023/11/13 08:17:39;;;;;;;2.25;2.05;;;;;;;7.71;84.28;100388.78;4748398;30;20222;-66
2023/11/13 08:20:13;;;;;;;3.40;1.15;;;;;;;7.59;84.67;100384.13;4734405;30;20204;-67
2023/11/13 08:22:46;;;;;;;2.45;1.88;;;;;;;7.58;83.55;100390.53;4735603;30;20211;-64
2023/11/13 08:25:17;;;;;;;5.03;2.00;;;;;;;7.61;83.88;100393.66;4735643;30;20202;-66
2023/11/13 08:27:51;;;;;;;8.05;1.70;;;;;;;7.63;83.15;100388.94;4736310;30;20626;-65
2023/11/13 08:30:23;;;;;;;2.03;1.73;;;;;;;7.62;82.39;100398.03;4737324;30;20212;-66
2023/11/13 08:32:54;;;;;;;3.72;1.95;;;;;;;7.60;82.05;100402.75;4734260;30;20226;-67
2023/11/13 08:35:28;;;;;;;3.33;1.58;;;;;;;7.78;82.90;100400.44;4748619;30;20227;-67
2023/11/13 08:38:02;;;;;;;4.07;2.50;;;;;;;7.79;81.53;100401.28;4734362;30;20200;-65
2023/11/13 08:40:35;;;;;;;4.90;1.90;;;;;;;7.82;80.87;100406.25;4735857;30;20777;-66
2023/11/13 08:43:10;;;;;;;3.33;1.60;;;;;;;7.75;81.38;100410.75;4733400;30;20256;-65
2023/11/13 08:45:44;;;;;;;2.65;1.65;;;;;;;7.93;81.70;100408.44;4732203;30;20233;-64
2023/11/13 08:48:30;;;;;;;4.35;2.83;;;;;;;7.71;82.23;100402.25;4735429;30;20199;-63
2023/11/13 08:51:01;;;;;;;3.55;2.55;;;;;;;7.74;81.68;100398.34;4735384;30;20634;-65
2023/11/13 08:53:32;;;;;;;4.35;1.83;;;;;;;7.70;82.41;100391.66;4735468;30;20606;-65
2023/11/13 08:56:04;;;;;;;8.93;3.83;;;;;;;7.93;81.57;100394.97;4733541;30;20762;-66
2023/11/13 08:58:38;;;;;;;3.03;2.40;;;;;;;7.89;81.73;100390.97;4745739;30;20212;-67
2023/11/13 09:01:08;;;;;;;4.53;2.60;;;;;;;7.89;81.55;100390.97;4731998;30;20200;-66
2023/11/13 09:03:39;;;;;;;6.13;3.10;;;;;;;7.91;82.32;100391.63;4731036;30;20779;-67
2023/11/13 09:06:13;;;;;;;3.15;2.50;;;;;;;7.92;81.82;100381.69;4748304;30;20208;-66
2023/11/13 09:08:44;;;;;;;7.38;2.58;;;;;;;8.27;79.47;100386.88;4751629;30;20695;-65
2023/11/13 09:11:17;;;;;;;4.80;2.17;;;;;;;8.24;78.97;100383.72;4735909;30;20322;-67
2023/11/13 09:13:49;;;;;;;3.30;2.20;;;;;;;8.18;78.10;100390.75;4748739;30;20576;-64
2023/11/13 09:16:20;;;;;;;2.65;2.00;;;;;;;8.22;77.83;100385.81;4748090;30;20204;-66
2023/11/13 09:18:55;;;;;;;7.97;2.05;;;;;;;8.06;78.40;100381.56;4749389;30;20938;-65
2023/11/13 09:21:28;;;;;;;4.07;2.47;;;;;;;8.15;77.74;100380.38;4736448;30;20192;-65
2023/11/13 09:23:58;;;;;;;5.13;2.47;;;;;;;8.34;76.65;100383.38;4748146;30;20232;-65
2023/11/13 09:26:28;;;;;;;2.97;1.95;;;;;;;8.42;75.85;100378.69;4733231;30;20204;-64
2023/11/13 09:29:01;;;;;;;3.42;2.15;;;;;;;8.42;73.83;100388.63;4746039;30;20295;-63
2023/11/13 09:31:32;;;;;;;3.83;1.67;;;;;;;8.32;73.81;100383.63;4745105;30;20590;-63
2023/11/13 09:34:07;;;;;;;4.18;2.47;;;;;;;8.26;74.48;100379.81;4732805;30;20247;-65
2023/11/13 09:36:37;;;;;;;7.22;3.67;;;;;;;8.54;74.23;100368.13;4732199;30;20236;-66
2023/11/13 09:39:08;;;;;;;3.45;2.25;;;;;;;8.38;73.79;100363.91;4732677;30;20724;-65
2023/11/13 09:41:50;;;;;;;2.50;1.80;;;;;;;8.41;74.09;100362.69;4747255;30;20208;-67
2023/11/13 09:44:25;;;;;;;4.65;2.53;;;;;;;8.36;74.58;100357.91;4745785;30;20629;-66
2023/11/13 09:46:59;;;;;;;3.17;2.75;;;;;;;8.66;71.97;100366.53;4746414;30;20211;-66
2023/11/13 09:49:33;;;;;;;5.93;2.85;;;;;;;8.84;71.34;100369.50;4747286;30;20213;-65
2023/11/13 09:52:04;;;;;;;3.75;2.30;;;;;;;8.99;70.14;100367.47;4744348;30;20302;-66
2023/11/13 09:54:35;;;;;;;4.80;2.17;;;;;;;9.27;69.05;100361.03;4733016;30;20231;-64
2023/11/13 09:57:13;;;;;;;4.38;2.80;;;;;;;9.41;67.13;100357.31;4732821;30;20200;-66
2023/11/13 09:59:51;;;;;;;2.60;1.90;;;;;;;9.43;66.40;100355.25;4744276;30;20625;-66
2023/11/13 10:02:24;;;;;;;7.93;2.75;;;;;;;9.51;66.78;100355.03;4733712;30;20284;-67
2023/11/13 10:04:54;;;;;;;2.73;2.50;;;;;;;9.46;67.29;100352.13;4732844;30;20756;-66
2023/11/13 10:07:27;;;;;;;4.73;2.40;;;;;;;9.70;66.94;100347.94;4731987;30;20936;-66
2023/11/13 10:10:03;;;;;;;4.27;2.13;;;;;;;9.59;67.13;100346.69;4745537;30;20469;-65
2023/11/13 10:12:34;;;;;;;4.43;2.33;;;;;;;9.54;67.62;100349.19;4731963;30;20546;-66
2023/11/13 10:15:12;;;;;;;4.60;2.77;;;;;;;9.48;68.15;100342.78;4745578;30;20328;-66
2023/11/13 10:17:48;;;;;;;5.93;2.75;;;;;;;9.51;67.99;100341.53;4733064;30;20433;-66
2023/11/13 10:20:19;;;;;;;3.30;2.35;;;;;;;9.47;68.56;100342.97;4732705;30;20267;-64
2023/11/13 10:23:00;;;;;;;5.23;2.70;;;;;;;9.54;67.75;100328.41;4746321;30;20238;-65
2023/11/13 10:25:40;;;;;;;3.50;2.05;;;;;;;9.34;67.94;100332.19;4729804;30;20516;-65
2023/11/13 10:28:12;;;;;;;4.40;3.20;;;;;;;9.27;67.31;100318.69;4732093;30;20244;-67
2023/11/13 10:30:58;;;;;;;4.60;2.70;;;;;;;9.60;68.04;100315.94;4732789;30;20425;-66
2023/11/13 10:33:30;;;;;;;2.83;2.15;;;;;;;9.61;66.62;100312.22;4748232;30;20516;-66
2023/11/13 10:36:04;;;;;;;2.40;2.20;;;;;;;9.48;66.26;100307.69;4745604;30;20204;-64
2023/11/13 10:38:45;;;;;;;5.10;2.67;;;;;;;9.83;66.07;100302.81;4743828;30;20474;-66
2023/11/13 10:41:21;;;;;;;3.20;2.60;;;;;;;9.75;64.41;100294.94;4732053;30;20227;-65
2023/11/13 10:43:52;;;;;;;4.18;3.00;;;;;;;9.62;64.93;100292.28;4733841;30;20239;-66
2023/11/13 10:46:36;;;;;;;4.03;1.45;;;;;;;9.44;63.21;100284.81;4732032;30;20209;-66
2023/11/13 10:49:12;;;;;;;2.58;1.65;;;;;;;9.36;63.48;100270.69;4745335;30;20679;-66
2023/11/13 10:51:46;;;;;;;1.80;1.30;;;;;;;9.18;64.45;100267.81;4733442;30;20222;-65
2023/11/13 10:54:18;;;;;;;2.95;1.80;;;;;;;9.15;65.81;100267.16;4732010;30;20579;-64
2023/11/13 10:56:50;;;;;;;2.30;2.10;;;;;;;9.09;66.94;100267.19;4731624;30;20215;-65
2023/11/13 10:59:21;;;;;;;3.30;1.50;;;;;;;9.02;68.50;100264.47;4730705;30;20203;-66
2023/11/13 11:01:57;;;;;;;2.10;1.88;;;;;;;9.13;67.83;100274.66;4731710;30;20200;-63
2023/11/13 11:04:30;;;;;;;3.65;2.17;;;;;;;9.31;65.36;100257.00;4731958;30;20231;-66
2023/11/13 11:07:04;;;;;;;5.13;2.30;;;;;;;9.31;65.49;100252.41;4732156;30;20215;-65
2023/11/13 11:09:36;;;;;;;6.10;2.15;;;;;;;9.44;65.49;100254.28;4732045;30;20212;-66
2023/11/13 11:12:08;;;;;;;6.47;2.17;;;;;;;9.45;66.69;100251.38;4734627;30;20208;-66
2023/11/13 11:14:51;;;;;;;3.40;2.20;;;;;;;9.36;66.57;100243.69;4732499;30;20321;-66
2023/11/13 11:17:31;;;;;;;11.07;2.45;;;;;;;9.19;67.95;100237.06;4746317;30;20481;-67
2023/11/13 11:20:08;;;;;;;6.35;1.98;;;;;;;9.34;67.78;100235.81;4745825;30;20216;-66
2023/11/13 11:22:44;;;;;;;3.15;1.45;;;;;;;9.44;65.93;100224.59;4756720;30;20298;-66
2023/11/13 11:25:32;;;;;;;4.38;2.25;;;;;;;9.45;66.10;100228.91;4745507;30;20204;-66
2023/11/13 11:28:04;;;;;;;2.83;2.20;;;;;;;9.79;65.02;100234.03;4749297;30;20204;-66
2023/11/13 11:30:36;;;;;;;4.25;2.08;;;;;;;9.70;64.97;100234.47;4756534;30;20200;-67
2023/11/13 11:33:10;;;;;;;3.47;2.50;;;;;;;9.56;64.78;100234.53;4739543;30;20300;-67
2023/11/13 11:35:43;;;;;;;4.90;3.83;;;;;;;9.43;66.21;100237.25;4747041;30;20498;-67
2023/11/13 11:38:26;;;;;;;3.28;2.10;;;;;;;9.33;65.75;100234.16;4755248;30;20681;-65
2023/11/13 11:40:59;;;;;;;2.75;2.05;;;;;;;9.51;63.82;100233.50;4746259;30;20230;-65
2023/11/13 11:43:33;;;;;;;5.82;2.17;;;;;;;9.42;63.40;100221.25;4733960;30;20223;-66
2023/11/13 11:46:06;;;;;;;2.73;1.70;;;;;;;9.64;63.20;100217.25;4745613;30;20212;-66
2023/11/13 11:48:41;;;;;;;4.80;2.13;;;;;;;9.58;63.42;100223.50;4747181;30;20584;-66
2023/11/13 11:51:15;;;;;;;2.83;2.50;;;;;;;9.64;61.86;100203.72;4732296;30;20303;-66
2023/11/13 11:53:57;;;;;;;2.05;1.58;;;;;;;9.65;63.34;100204.56;4749771;30;20770;-65